Time;durP1;ratioP1;P1;durP2;ratioP2;P2;SDS_P1;SDS_P2;PMS_P1;PMS_P2;Temp;Humidity;BMP_temperature;BMP_pressure;BME280_temperature;BME280_humidity;BME280_pressure;Samples;Min_cycle;Max_cycle;Signal;HPM_P1;HPM_P2
2023/04/17 00:00:22;;;;;;;;;;;9.50;99.90;;;;;;4930972;29;19915;-73
2023/04/17 00:02:48;;;;;;;;;;;9.50;99.90;;;;;;4926528;29;20005;-73
2023/04/17 00:05:15;;;;;;;;;;;9.50;99.90;;;;;;4936301;29;19921;-73
2023/04/17 00:07:41;;;;;;;;;;;9.50;99.90;;;;;;4935015;29;19922;-73
2023/04/17 00:10:07;;;;;;;;;;;9.50;99.90;;;;;;4935650;29;19925;-73
2023/04/17 00:12:33;;;;;;;;;;;9.40;99.90;;;;;;4919429;29;19922;-73
2023/04/17 00:14:58;;;;;;;;;;;9.40;99.90;;;;;;4935929;29;19914;-73
2023/04/17 00:17:24;;;;;;;;;;;9.40;99.90;;;;;;4919335;29;19921;-73
2023/04/17 00:19:50;;;;;;;;;;;9.40;99.90;;;;;;4928861;29;19922;-73
2023/04/17 00:22:15;;;;;;;;;;;9.30;99.90;;;;;;4918329;29;19961;-73
2023/04/17 00:24:41;;;;;;;;;;;9.30;99.90;;;;;;4932017;29;20005;-73
2023/04/17 00:27:06;;;;;;;;;;;9.40;99.90;;;;;;4922066;29;19919;-73
2023/04/17 00:29:33;;;;;;;;;;;9.30;99.90;;;;;;4918873;29;19914;-73
2023/04/17 00:31:58;;;;;;;;;;;9.30;99.90;;;;;;4908163;29;20355;-73
2023/04/17 00:34:24;;;;;;;;;;;9.30;99.90;;;;;;4916944;29;19959;-73
2023/04/17 00:36:51;;;;;;;;;;;9.30;99.90;;;;;;4940984;29;20359;-73
2023/04/17 00:39:17;;;;;;;;;;;9.20;99.90;;;;;;4942854;29;20332;-73
2023/04/17 00:41:43;;;;;;;;;;;9.20;99.90;;;;;;4923168;29;20023;-74
2023/04/17 00:44:09;;;;;;;;;;;9.20;99.90;;;;;;4927593;29;20312;-73
2023/04/17 00:46:35;;;;;;;;;;;9.20;99.90;;;;;;4940633;29;19918;-73
2023/04/17 00:49:00;;;;;;;;;;;9.10;99.90;;;;;;4923509;29;20247;-73
2023/04/17 00:51:26;;;;;;;;;;;9.10;99.90;;;;;;4924384;29;19977;-73
2023/04/17 00:53:52;;;;;;;;;;;9.10;99.90;;;;;;4928822;29;20244;-73
2023/04/17 00:56:18;;;;;;;;;;;9.00;99.90;;;;;;4935185;29;19911;-73
2023/04/17 00:58:44;;;;;;;;;;;9.00;99.90;;;;;;4917622;29;19921;-74
2023/04/17 01:01:09;;;;;;;;;;;9.00;99.90;;;;;;4934625;29;19981;-74
2023/04/17 01:03:36;;;;;;;;;;;9.00;99.90;;;;;;4945396;29;20355;-73
2023/04/17 01:06:02;;;;;;;;;;;9.00;99.90;;;;;;4939113;29;20005;-73
2023/04/17 01:08:28;;;;;;;;;;;9.00;99.90;;;;;;4920758;29;19993;-74
2023/04/17 01:10:54;;;;;;;;;;;9.00;99.90;;;;;;4920986;29;19918;-74
2023/04/17 01:13:20;;;;;;;;;;;9.00;99.90;;;;;;4923017;29;19929;-73
2023/04/17 01:15:45;;;;;;;;;;;9.00;99.90;;;;;;4932348;29;19914;-73
2023/04/17 01:18:11;;;;;;;;;;;8.90;99.90;;;;;;4934041;29;19970;-74
2023/04/17 01:20:37;;;;;;;;;;;8.90;99.90;;;;;;4929127;29;20419;-73
2023/04/17 01:23:02;;;;;;;;;;;8.90;99.90;;;;;;4904984;29;19914;-73
2023/04/17 01:25:28;;;;;;;;;;;8.80;99.90;;;;;;4907926;29;20399;-73
2023/04/17 01:27:54;;;;;;;;;;;8.90;99.90;;;;;;4936798;28;20375;-73
2023/04/17 01:30:19;;;;;;;;;;;8.90;99.90;;;;;;4922283;29;19915;-74
2023/04/17 01:32:45;;;;;;;;;;;8.90;99.90;;;;;;4905700;29;19911;-73
2023/04/17 01:35:11;;;;;;;;;;;8.90;99.90;;;;;;4923385;29;19921;-74
2023/04/17 01:37:36;;;;;;;;;;;8.80;99.90;;;;;;4900012;29;19919;-73
2023/04/17 01:40:06;;;;;;;;;;;8.80;99.90;;;;;;4933447;29;19910;-74
2023/04/17 01:42:32;;;;;;;;;;;8.80;99.90;;;;;;4933521;29;20403;-73
2023/04/17 01:44:58;;;;;;;;;;;8.80;99.90;;;;;;4934963;29;19965;-74
2023/04/17 01:47:24;;;;;;;;;;;8.80;99.90;;;;;;4918062;29;19926;-73
2023/04/17 01:49:49;;;;;;;;;;;8.80;99.90;;;;;;4904501;29;19915;-73
2023/04/17 01:52:15;;;;;;;;;;;8.80;99.90;;;;;;4922323;29;19915;-74
2023/04/17 01:54:41;;;;;;;;;;;8.80;99.90;;;;;;4930343;29;19914;-73
2023/04/17 01:57:06;;;;;;;;;;;8.80;99.90;;;;;;4917555;29;19997;-73
2023/04/17 01:59:32;;;;;;;;;;;8.80;99.90;;;;;;4934927;29;19930;-73
2023/04/17 02:01:58;;;;;;;;;;;8.80;99.90;;;;;;4929158;29;19923;-73
2023/04/17 02:04:23;;;;;;;;;;;8.70;99.90;;;;;;4931472;29;20368;-73
2023/04/17 02:06:49;;;;;;;;;;;8.80;99.90;;;;;;4922581;29;19922;-73
2023/04/17 02:09:15;;;;;;;;;;;8.80;99.90;;;;;;4930825;29;19961;-73
2023/04/17 02:11:40;;;;;;;;;;;8.80;99.90;;;;;;4921307;28;20002;-73
2023/04/17 02:14:06;;;;;;;;;;;8.70;99.90;;;;;;4932632;29;19993;-73
2023/04/17 02:16:32;;;;;;;;;;;8.70;99.90;;;;;;4922364;29;20320;-73
2023/04/17 02:18:58;;;;;;;;;;;8.70;99.90;;;;;;4915185;29;19974;-73
2023/04/17 02:21:23;;;;;;;;;;;8.70;99.90;;;;;;4917272;29;19914;-73
2023/04/17 02:23:49;;;;;;;;;;;8.70;99.90;;;;;;4904390;29;20017;-73
2023/04/17 02:26:15;;;;;;;;;;;8.70;99.90;;;;;;4920954;29;19926;-73
2023/04/17 02:28:44;;;;;;;;;;;8.70;99.90;;;;;;4916465;29;20142;-73
2023/04/17 02:31:10;;;;;;;;;;;8.60;99.90;;;;;;4921982;29;20507;-73
2023/04/17 02:33:36;;;;;;;;;;;8.60;99.90;;;;;;4924443;29;20327;-73
2023/04/17 02:36:02;;;;;;;;;;;8.60;99.90;;;;;;4942225;29;19918;-74
2023/04/17 02:38:30;;;;;;;;;;;8.60;99.90;;;;;;4923440;29;20005;-73
2023/04/17 02:40:56;;;;;;;;;;;8.60;99.90;;;;;;4913087;29;20298;-73
2023/04/17 02:43:22;;;;;;;;;;;8.60;99.90;;;;;;4902071;29;19930;-73
2023/04/17 02:45:48;;;;;;;;;;;8.50;99.90;;;;;;4919884;29;20335;-73
2023/04/17 02:48:14;;;;;;;;;;;8.50;99.90;;;;;;4938697;29;20325;-73
2023/04/17 02:50:39;;;;;;;;;;;8.50;99.90;;;;;;4936153;29;19999;-73
2023/04/17 02:53:05;;;;;;;;;;;8.50;99.90;;;;;;4938294;29;20001;-73
2023/04/17 02:55:31;;;;;;;;;;;8.50;99.90;;;;;;4934452;29;19915;-73
2023/04/17 02:57:57;;;;;;;;;;;8.50;99.90;;;;;;4924757;29;22035;-73
2023/04/17 03:00:23;;;;;;;;;;;8.50;99.90;;;;;;4939695;29;20327;-73
2023/04/17 03:02:48;;;;;;;;;;;8.50;99.90;;;;;;4937602;29;20235;-73
2023/04/17 03:05:14;;;;;;;;;;;8.50;99.90;;;;;;4926269;29;19945;-73
2023/04/17 03:07:40;;;;;;;;;;;8.50;99.90;;;;;;4940418;29;20338;-74
2023/04/17 03:10:07;;;;;;;;;;;8.50;99.90;;;;;;4925032;29;19925;-74
2023/04/17 03:12:34;;;;;;;;;;;8.40;99.90;;;;;;4949357;28;20282;-74
2023/04/17 03:14:59;;;;;;;;;;;8.40;99.90;;;;;;4948905;29;19925;-74
2023/04/17 03:17:25;;;;;;;;;;;8.40;99.90;;;;;;4931798;29;19926;-74
2023/04/17 03:19:51;;;;;;;;;;;8.40;99.90;;;;;;4917516;29;20005;-74
2023/04/17 03:22:16;;;;;;;;;;;8.40;99.90;;;;;;4924781;29;19944;-74
2023/04/17 03:24:42;;;;;;;;;;;8.40;99.90;;;;;;4925244;29;19914;-74
2023/04/17 03:27:08;;;;;;;;;;;8.40;99.90;;;;;;4940225;29;19911;-74
2023/04/17 03:29:33;;;;;;;;;;;8.40;99.90;;;;;;4908305;29;19911;-74
2023/04/17 03:31:59;;;;;;;;;;;8.40;99.90;;;;;;4945190;29;19954;-73
2023/04/17 03:34:25;;;;;;;;;;;8.40;99.90;;;;;;4939984;29;19965;-74
2023/04/17 03:36:50;;;;;;;;;;;8.40;99.90;;;;;;4949724;28;19925;-74
2023/04/17 03:39:16;;;;;;;;;;;8.40;99.90;;;;;;4915241;29;19911;-73
2023/04/17 03:41:42;;;;;;;;;;;8.40;99.90;;;;;;4948562;29;19966;-72
2023/04/17 03:44:07;;;;;;;;;;;8.30;99.90;;;;;;4944313;29;19930;-72
2023/04/17 03:46:33;;;;;;;;;;;8.40;99.90;;;;;;4953172;28;20647;-72
2023/04/17 03:48:59;;;;;;;;;;;8.30;99.90;;;;;;4929420;29;20009;-72
2023/04/17 03:51:26;;;;;;;;;;;8.40;99.90;;;;;;4937051;29;19925;-73
2023/04/17 03:53:51;;;;;;;;;;;8.30;99.90;;;;;;4934748;29;19914;-73
2023/04/17 03:56:17;;;;;;;;;;;8.30;99.90;;;;;;4927666;29;19993;-74
2023/04/17 03:58:43;;;;;;;;;;;8.30;99.90;;;;;;4942105;29;19921;-74
2023/04/17 04:01:09;;;;;;;;;;;8.20;99.90;;;;;;4930854;29;19914;-74
2023/04/17 04:03:35;;;;;;;;;;;8.30;99.90;;;;;;4944907;29;20065;-74
2023/04/17 04:06:01;;;;;;;;;;;8.30;99.90;;;;;;4921591;29;20048;-74
2023/04/17 04:08:27;;;;;;;;;;;8.30;99.90;;;;;;4945550;29;19965;-74
2023/04/17 04:10:52;;;;;;;;;;;8.20;99.90;;;;;;4950079;29;19915;-74
2023/04/17 04:13:18;;;;;;;;;;;8.20;99.90;;;;;;4928828;29;19915;-74
2023/04/17 04:15:44;;;;;;;;;;;8.20;99.90;;;;;;4957237;29;19914;-74
2023/04/17 04:18:09;;;;;;;;;;;8.30;99.90;;;;;;4946314;29;19922;-74
2023/04/17 04:20:35;;;;;;;;;;;8.20;99.90;;;;;;4950737;29;19914;-74
2023/04/17 04:23:02;;;;;;;;;;;8.20;99.90;;;;;;4947757;29;19989;-74
2023/04/17 04:25:27;;;;;;;;;;;8.20;99.90;;;;;;4923233;29;20186;-74
2023/04/17 04:27:55;;;;;;;;;;;8.20;99.90;;;;;;4951091;29;19953;-74
2023/04/17 04:30:20;;;;;;;;;;;8.20;99.90;;;;;;4933745;29;19914;-75
2023/04/17 04:32:46;;;;;;;;;;;8.10;99.90;;;;;;4912181;29;19922;-74
2023/04/17 04:35:12;;;;;;;;;;;8.10;99.90;;;;;;4950145;29;19914;-74
2023/04/17 04:37:38;;;;;;;;;;;8.10;99.90;;;;;;4932475;29;19918;-74
2023/04/17 04:40:09;;;;;;;;;;;8.10;99.90;;;;;;4944371;29;19925;-75
2023/04/17 04:42:38;;;;;;;;;;;8.10;99.90;;;;;;4943446;29;20351;-74
2023/04/17 04:45:04;;;;;;;;;;;8.10;99.90;;;;;;4948213;29;19910;-74
2023/04/17 04:47:30;;;;;;;;;;;8.10;99.90;;;;;;4948117;29;19942;-74
2023/04/17 04:49:56;;;;;;;;;;;8.10;99.90;;;;;;4944089;29;19917;-74
2023/04/17 04:52:22;;;;;;;;;;;8.10;99.90;;;;;;4944072;29;19934;-73
2023/04/17 04:54:48;;;;;;;;;;;8.10;99.90;;;;;;4945096;29;19915;-73
2023/04/17 04:57:14;;;;;;;;;;;8.00;99.90;;;;;;4944381;29;19910;-74
2023/04/17 04:59:40;;;;;;;;;;;8.00;99.90;;;;;;4945628;28;19949;-74
2023/04/17 05:02:07;;;;;;;;;;;8.10;99.90;;;;;;4947260;29;19997;-74
2023/04/17 05:04:32;;;;;;;;;;;8.10;99.90;;;;;;4946519;29;19997;-74
2023/04/17 05:06:58;;;;;;;;;;;8.10;99.90;;;;;;4950761;29;20021;-74
2023/04/17 05:09:24;;;;;;;;;;;8.10;99.90;;;;;;4945780;29;19969;-74
2023/04/17 05:11:52;;;;;;;;;;;8.20;99.90;;;;;;4945259;29;20244;-74
2023/04/17 05:14:18;;;;;;;;;;;8.20;99.90;;;;;;4947599;28;19914;-74
2023/04/17 05:16:44;;;;;;;;;;;8.20;99.90;;;;;;4927956;29;20001;-74
2023/04/17 05:19:10;;;;;;;;;;;8.10;99.90;;;;;;4913115;29;19921;-74
2023/04/17 05:21:35;;;;;;;;;;;8.20;99.90;;;;;;4943461;29;19914;-74
2023/04/17 05:24:01;;;;;;;;;;;8.20;99.90;;;;;;4926998;29;20304;-73
2023/04/17 05:26:27;;;;;;;;;;;8.20;99.90;;;;;;4913264;29;20457;-73
2023/04/17 05:28:54;;;;;;;;;;;8.20;99.90;;;;;;4941370;28;19926;-73
2023/04/17 05:31:20;;;;;;;;;;;8.20;99.90;;;;;;4922146;29;19950;-73
2023/04/17 05:33:46;;;;;;;;;;;8.20;99.90;;;;;;4943039;29;19917;-73
2023/04/17 05:36:12;;;;;;;;;;;8.20;99.90;;;;;;4904948;29;19915;-73
2023/04/17 05:38:37;;;;;;;;;;;8.20;99.90;;;;;;4943279;29;19918;-73
2023/04/17 05:41:06;;;;;;;;;;;8.20;99.90;;;;;;4947788;29;19918;-72
2023/04/17 05:43:31;;;;;;;;;;;8.20;99.90;;;;;;4911749;29;19918;-73
2023/04/17 05:45:57;;;;;;;;;;;8.30;99.90;;;;;;4939460;29;19915;-74
2023/04/17 05:48:23;;;;;;;;;;;8.30;99.90;;;;;;4950564;29;19918;-73
2023/04/17 05:50:49;;;;;;;;;;;8.30;99.90;;;;;;4943105;28;19914;-74
2023/04/17 05:53:14;;;;;;;;;;;8.30;99.90;;;;;;4933023;29;19998;-74
2023/04/17 05:55:41;;;;;;;;;;;8.30;99.90;;;;;;4934330;29;19914;-73
2023/04/17 05:58:06;;;;;;;;;;;8.40;99.90;;;;;;4948416;29;19922;-73
2023/04/17 06:00:32;;;;;;;;;;;8.40;99.90;;;;;;4924724;29;19978;-74
2023/04/17 06:03:00;;;;;;;;;;;8.40;99.90;;;;;;4934969;29;19910;-74
2023/04/17 06:05:26;;;;;;;;;;;8.40;99.90;;;;;;4935650;29;19950;-73
2023/04/17 06:07:51;;;;;;;;;;;8.50;99.90;;;;;;4938426;29;19919;-73
2023/04/17 06:10:17;;;;;;;;;;;8.40;99.90;;;;;;4943962;29;19926;-73
2023/04/17 06:12:43;;;;;;;;;;;8.40;99.90;;;;;;4925740;29;19922;-74
2023/04/17 06:15:09;;;;;;;;;;;8.50;99.90;;;;;;4932779;29;19911;-75
2023/04/17 06:17:35;;;;;;;;;;;8.40;99.90;;;;;;4946884;29;20521;-75
2023/04/17 06:20:01;;;;;;;;;;;8.50;99.90;;;;;;4932361;29;19914;-75
2023/04/17 06:22:26;;;;;;;;;;;8.50;99.90;;;;;;4937538;29;20200;-75
2023/04/17 06:24:52;;;;;;;;;;;8.60;99.90;;;;;;4943541;29;19914;-75
2023/04/17 06:27:17;;;;;;;;;;;8.60;99.90;;;;;;4948042;28;19914;-74
2023/04/17 06:29:43;;;;;;;;;;;8.70;99.90;;;;;;4926397;29;19917;-74
2023/04/17 06:32:09;;;;;;;;;;;8.70;99.90;;;;;;4932339;29;20030;-74
2023/04/17 06:34:34;;;;;;;;;;;8.80;99.90;;;;;;4938343;29;19925;-74
2023/04/17 06:37:00;;;;;;;;;;;8.80;99.90;;;;;;4948154;29;19911;-74
2023/04/17 06:39:26;;;;;;;;;;;8.90;99.90;;;;;;4938317;29;19914;-74
2023/04/17 06:41:51;;;;;;;;;;;8.90;99.90;;;;;;4925745;29;19922;-74
2023/04/17 06:44:17;;;;;;;;;;;8.90;99.90;;;;;;4952860;29;19933;-74
2023/04/17 06:46:43;;;;;;;;;;;9.00;99.90;;;;;;4944193;29;20224;-73
2023/04/17 06:49:08;;;;;;;;;;;9.00;99.90;;;;;;4918858;29;19918;-73
2023/04/17 06:51:34;;;;;;;;;;;9.00;99.90;;;;;;4923433;29;19929;-73
2023/04/17 06:54:00;;;;;;;;;;;9.10;99.90;;;;;;4950598;29;19911;-73
2023/04/17 06:56:25;;;;;;;;;;;9.10;99.90;;;;;;4942483;29;20292;-73
2023/04/17 06:58:52;;;;;;;;;;;9.20;99.90;;;;;;4940729;29;19911;-74
2023/04/17 07:01:17;;;;;;;;;;;9.20;99.90;;;;;;4946610;29;19918;-72
2023/04/17 07:03:43;;;;;;;;;;;9.20;99.90;;;;;;4941665;29;19969;-72
2023/04/17 07:06:09;;;;;;;;;;;9.30;99.90;;;;;;4950369;28;19938;-72
2023/04/17 07:08:34;;;;;;;;;;;9.20;99.90;;;;;;4946073;28;19918;-73
2023/04/17 07:11:00;;;;;;;;;;;9.30;99.90;;;;;;4946938;29;19914;-73
2023/04/17 07:13:30;;;;;;;;;;;9.30;99.90;;;;;;4944570;29;19923;-73
2023/04/17 07:15:56;;;;;;;;;;;9.30;99.90;;;;;;4911334;29;19961;-73
2023/04/17 07:18:22;;;;;;;;;;;9.40;99.90;;;;;;4931744;29;19910;-72
2023/04/17 07:20:48;;;;;;;;;;;9.40;99.90;;;;;;4920664;29;19974;-72
2023/04/17 07:23:13;;;;;;;;;;;9.50;99.90;;;;;;4947321;29;19919;-73
2023/04/17 07:25:39;;;;;;;;;;;9.50;99.90;;;;;;4928029;29;19925;-72
2023/04/17 07:28:05;;;;;;;;;;;9.60;99.90;;;;;;4938161;29;19918;-73
2023/04/17 07:30:30;;;;;;;;;;;9.60;99.90;;;;;;4948145;29;19990;-73
2023/04/17 07:32:56;;;;;;;;;;;9.60;99.90;;;;;;4930320;29;20342;-73
2023/04/17 07:35:22;;;;;;;;;;;9.70;99.90;;;;;;4947938;28;19924;-72
2023/04/17 07:37:48;;;;;;;;;;;9.70;99.90;;;;;;4926559;29;20319;-73
2023/04/17 07:40:14;;;;;;;;;;;9.80;99.90;;;;;;4931484;29;19914;-73
2023/04/17 07:42:40;;;;;;;;;;;9.80;99.90;;;;;;4920432;29;20009;-72
2023/04/17 07:45:06;;;;;;;;;;;9.80;99.90;;;;;;4939287;29;19997;-73
2023/04/17 07:47:32;;;;;;;;;;;9.90;99.90;;;;;;4929045;29;19918;-72
2023/04/17 07:49:58;;;;;;;;;;;9.90;99.90;;;;;;4940106;29;20282;-73
2023/04/17 07:52:24;;;;;;;;;;;10.00;99.90;;;;;;4944766;29;20421;-73
2023/04/17 07:54:50;;;;;;;;;;;10.00;99.90;;;;;;4927654;29;19911;-73
2023/04/17 07:57:16;;;;;;;;;;;10.00;99.90;;;;;;4941477;29;20246;-73
2023/04/17 07:59:42;;;;;;;;;;;10.10;99.90;;;;;;4940195;29;20391;-72
2023/04/17 08:02:08;;;;;;;;;;;10.10;99.90;;;;;;4945204;28;19950;-72
2023/04/17 08:04:34;;;;;;;;;;;10.10;99.90;;;;;;4937702;29;19922;-73
2023/04/17 08:07:00;;;;;;;;;;;10.20;99.90;;;;;;4921622;29;19914;-73
2023/04/17 08:09:25;;;;;;;;;;;10.30;99.90;;;;;;4918756;29;19982;-73
2023/04/17 08:11:51;;;;;;;;;;;10.30;99.90;;;;;;4937357;29;19922;-73
2023/04/17 08:14:19;;;;;;;;;;;10.40;99.90;;;;;;4918196;29;20001;-73
2023/04/17 08:16:48;;;;;;;;;;;10.40;99.90;;;;;;4903473;29;20013;-73
2023/04/17 08:19:14;;;;;;;;;;;10.40;99.90;;;;;;4920560;29;19915;-73
2023/04/17 08:21:40;;;;;;;;;;;10.40;99.90;;;;;;4923229;29;19921;-74
2023/04/17 08:24:07;;;;;;;;;;;10.50;99.90;;;;;;4937290;29;20316;-73
2023/04/17 08:26:33;;;;;;;;;;;10.60;99.90;;;;;;4943400;28;20327;-73
2023/04/17 08:29:03;;;;;;;;;;;10.60;99.90;;;;;;4939875;29;19941;-73
2023/04/17 08:31:29;;;;;;;;;;;10.70;99.90;;;;;;4944862;29;19923;-73
2023/04/17 08:33:55;;;;;;;;;;;10.80;99.90;;;;;;4945141;29;19958;-73
2023/04/17 08:36:20;;;;;;;;;;;11.00;99.90;;;;;;4927649;29;19930;-73
2023/04/17 08:38:47;;;;;;;;;;;11.10;99.90;;;;;;4945221;29;19926;-73
2023/04/17 08:41:17;;;;;;;;;;;11.10;99.90;;;;;;4946992;29;19925;-73
2023/04/17 08:43:42;;;;;;;;;;;11.20;99.90;;;;;;4942852;29;19997;-73
2023/04/17 08:46:08;;;;;;;;;;;11.30;99.90;;;;;;4929551;29;20001;-73
2023/04/17 08:48:36;;;;;;;;;;;11.30;99.90;;;;;;4925317;29;20328;-74
2023/04/17 08:51:02;;;;;;;;;;;11.40;99.90;;;;;;4945419;29;19946;-73
2023/04/17 08:53:27;;;;;;;;;;;11.40;99.90;;;;;;4946958;29;19919;-73
2023/04/17 08:55:53;;;;;;;;;;;11.40;99.90;;;;;;4944248;29;19915;-73
2023/04/17 08:58:20;;;;;;;;;;;11.50;99.90;;;;;;4930168;29;19910;-73
2023/04/17 09:00:46;;;;;;;;;;;11.50;99.90;;;;;;4943219;29;20557;-73
2023/04/17 09:03:12;;;;;;;;;;;11.60;99.90;;;;;;4946961;29;19914;-73
2023/04/17 09:05:42;;;;;;;;;;;11.70;99.90;;;;;;4951504;29;20685;-74
2023/04/17 09:08:07;;;;;;;;;;;11.90;99.90;;;;;;4920826;29;19951;-73
2023/04/17 09:10:34;;;;;;;;;;;12.10;99.90;;;;;;4941350;29;19918;-73
2023/04/17 09:13:00;;;;;;;;;;;12.30;99.90;;;;;;4936313;29;19918;-73
2023/04/17 09:15:26;;;;;;;;;;;12.30;99.90;;;;;;4922521;29;19911;-73
2023/04/17 09:17:51;;;;;;;;;;;12.30;99.90;;;;;;4924981;29;20529;-73
2023/04/17 09:20:17;;;;;;;;;;;12.30;99.90;;;;;;4933168;29;19967;-73
2023/04/17 09:22:43;;;;;;;;;;;12.50;99.90;;;;;;4925940;29;19969;-73
2023/04/17 09:25:16;;;;;;;;;;;12.60;99.90;;;;;;4924137;29;20664;-73
2023/04/17 09:27:42;;;;;;;;;;;12.50;99.80;;;;;;4926949;29;20320;-73
2023/04/17 09:30:07;;;;;;;;;;;12.60;99.50;;;;;;4932929;29;19930;-73
2023/04/17 09:32:33;;;;;;;;;;;12.60;99.90;;;;;;4915817;29;20024;-73
2023/04/17 09:35:00;;;;;;;;;;;12.80;99.90;;;;;;4928351;29;19911;-73
2023/04/17 09:37:26;;;;;;;;;;;12.70;98.60;;;;;;4927543;29;20009;-73
2023/04/17 09:39:58;;;;;;;;;;;12.90;99.90;;;;;;4936412;29;20658;-73
2023/04/17 09:42:25;;;;;;;;;;;13.10;99.80;;;;;;4933182;29;19914;-73
2023/04/17 09:44:50;;;;;;;;;;;13.20;97.70;;;;;;4943962;29;19914;-73
2023/04/17 09:47:17;;;;;;;;;;;13.20;96.80;;;;;;4918911;29;19965;-73
2023/04/17 09:49:48;;;;;;;;;;;13.20;96.80;;;;;;4938211;29;19929;-73
2023/04/17 09:52:14;;;;;;;;;;;13.20;96.40;;;;;;4928025;29;19914;-74
2023/04/17 09:54:42;;;;;;;;;;;13.00;95.60;;;;;;4939330;28;19922;-73
2023/04/17 09:57:08;;;;;;;;;;;13.10;97.50;;;;;;4943606;28;20311;-73
2023/04/17 09:59:40;;;;;;;;;;;13.40;98.80;;;;;;4942163;29;20001;-73
2023/04/17 10:02:07;;;;;;;;;;;13.40;97.70;;;;;;4946635;29;19915;-73
2023/04/17 10:04:33;;;;;;;;;;;13.20;93.00;;;;;;4948571;29;19926;-73
2023/04/17 10:06:59;;;;;;;;;;;13.20;92.70;;;;;;4930544;29;19933;-73
2023/04/17 10:09:25;;;;;;;;;;;13.20;94.30;;;;;;4932721;29;19914;-73
2023/04/17 10:11:51;;;;;;;;;;;13.20;93.50;;;;;;4931654;28;19922;-73
2023/04/17 10:14:18;;;;;;;;;;;13.00;92.40;;;;;;4955507;29;19910;-73
2023/04/17 10:16:43;;;;;;;;;;;13.10;92.20;;;;;;4935815;29;19940;-73
2023/04/17 10:19:26;;;;;;;;;;;13.20;93.80;;;;;;4923570;29;20328;-73
2023/04/17 10:22:10;;;;;;;;;;;13.40;92.00;;;;;;4929805;29;19914;-73
2023/04/17 10:24:36;;;;;;;;;;;13.30;88.10;;;;;;4940465;29;19911;-74
2023/04/17 10:27:08;;;;;;;;;;;13.50;90.60;;;;;;4916672;29;19914;-75
2023/04/17 10:29:50;;;;;;;;;;;13.50;88.50;;;;;;4931586;29;19918;-76
2023/04/17 10:32:16;;;;;;;;;;;13.90;98.30;;;;;;4921433;29;19946;-75
2023/04/17 10:34:41;;;;;;;;;;;14.50;99.90;;;;;;4928132;29;20501;-75
2023/04/17 10:37:13;;;;;;;;;;;15.10;99.90;;;;;;4911898;29;20222;-75
2023/04/17 10:39:51;;;;;;;;;;;15.40;97.90;;;;;;4926720;29;19911;-76
2023/04/17 10:42:19;;;;;;;;;;;15.50;97.00;;;;;;4930537;29;19961;-75
2023/04/17 10:44:45;;;;;;;;;;;15.70;93.70;;;;;;4920970;29;19917;-74
2023/04/17 10:47:13;;;;;;;;;;;15.90;92.00;;;;;;4946158;29;19911;-77
2023/04/17 10:49:47;;;;;;;;;;;16.10;93.50;;;;;;4922292;29;19964;-75
2023/04/17 10:52:31;;;;;;;;;;;16.30;72.80;;;;;;4931020;29;19946;-77
2023/04/17 10:55:12;;;;;;;;;;;16.40;79.80;;;;;;4941967;29;19910;-77
2023/04/17 10:57:55;;;;;;;;;;;16.60;78.80;;;;;;4933019;29;19914;-76
2023/04/17 11:00:47;;;;;;;;;;;16.70;79.10;;;;;;4928241;29;20009;-77
2023/04/17 11:03:12;;;;;;;;;;;16.80;80.60;;;;;;4942463;29;19918;-76
2023/04/17 11:05:43;;;;;;;;;;;16.90;75.00;;;;;;4929330;29;19914;-77
2023/04/17 11:08:08;;;;;;;;;;;17.00;67.10;;;;;;4946072;29;19951;-77
2023/04/17 11:10:34;;;;;;;;;;;17.00;77.70;;;;;;4926354;29;20327;-77
2023/04/17 11:13:00;;;;;;;;;;;17.20;73.20;;;;;;4950404;28;19949;-77
2023/04/17 11:15:30;;;;;;;;;;;17.50;75.40;;;;;;4947910;29;20403;-77
2023/04/17 11:17:55;;;;;;;;;;;17.50;72.70;;;;;;4930842;29;19914;-76
2023/04/17 11:20:22;;;;;;;;;;;17.50;70.30;;;;;;4934721;28;19914;-74
2023/04/17 11:22:47;;;;;;;;;;;17.30;62.70;;;;;;4903672;29;19934;-73
2023/04/17 11:25:23;;;;;;;;;;;16.40;58.70;;;;;;4938377;29;20490;-73
2023/04/17 11:27:55;;;;;;;;;;;16.20;62.50;;;;;;4916044;29;19985;-75
2023/04/17 11:30:43;;;;;;;;;;;16.00;59.80;;;;;;4935075;29;19927;-74
2023/04/17 11:33:09;;;;;;;;;;;15.80;60.90;;;;;;4939887;29;19919;-73
2023/04/17 11:35:36;;;;;;;;;;;15.20;59.40;;;;;;4936756;28;20000;-74
2023/04/17 11:38:04;;;;;;;;;;;15.20;58.20;;;;;;4941880;28;20437;-74
2023/04/17 11:40:50;;;;;;;;;;;15.00;59.70;;;;;;4943747;28;19926;-74
2023/04/17 11:43:16;;;;;;;;;;;15.00;57.00;;;;;;4935953;29;20410;-74
2023/04/17 11:45:42;;;;;;;;;;;15.20;59.30;;;;;;4904993;29;19993;-73
2023/04/17 11:48:09;;;;;;;;;;;15.40;62.10;;;;;;4912177;29;19922;-74
2023/04/17 11:50:34;;;;;;;;;;;15.20;59.90;;;;;;4922680;29;19981;-73
2023/04/17 11:53:00;;;;;;;;;;;15.20;61.80;;;;;;4907265;29;19927;-74
2023/04/17 11:55:30;;;;;;;;;;;15.50;59.90;;;;;;4928851;29;19911;-74
2023/04/17 11:57:59;;;;;;;;;;;15.30;56.50;;;;;;4936349;29;19914;-73
2023/04/17 12:00:28;;;;;;;;;;;15.50;60.30;;;;;;4939624;29;20554;-73
2023/04/17 12:02:55;;;;;;;;;;;15.90;57.60;;;;;;4931309;29;19921;-73
2023/04/17 12:05:21;;;;;;;;;;;15.80;56.50;;;;;;4932148;29;19922;-74
2023/04/17 12:07:56;;;;;;;;;;;15.70;54.70;;;;;;4908935;29;19918;-73
2023/04/17 12:10:22;;;;;;;;;;;15.70;53.20;;;;;;4945508;29;19914;-73
2023/04/17 12:12:48;;;;;;;;;;;15.80;54.40;;;;;;4942663;29;20336;-74
2023/04/17 12:15:13;;;;;;;;;;;15.80;57.30;;;;;;4920539;29;19973;-74
2023/04/17 12:17:40;;;;;;;;;;;16.10;58.30;;;;;;4949219;29;19910;-73
2023/04/17 12:20:06;;;;;;;;;;;16.10;57.00;;;;;;4930904;29;19922;-73
2023/04/17 12:22:32;;;;;;;;;;;15.70;56.50;;;;;;4936726;29;19930;-74
2023/04/17 12:24:58;;;;;;;;;;;15.30;56.30;;;;;;4946912;29;19914;-74
2023/04/17 12:27:24;;;;;;;;;;;15.20;56.80;;;;;;4946829;29;19921;-74
2023/04/17 12:29:50;;;;;;;;;;;15.10;56.30;;;;;;4915006;29;19918;-74
2023/04/17 12:32:15;;;;;;;;;;;15.10;57.40;;;;;;4930826;29;20514;-74
2023/04/17 12:34:41;;;;;;;;;;;15.00;57.60;;;;;;4923112;29;20474;-74
2023/04/17 12:37:07;;;;;;;;;;;14.80;57.70;;;;;;4922976;29;20361;-74
2023/04/17 12:39:32;;;;;;;;;;;14.90;59.20;;;;;;4950008;29;19919;-74
2023/04/17 12:41:58;;;;;;;;;;;15.00;60.80;;;;;;4928870;29;19973;-74
2023/04/17 12:44:24;;;;;;;;;;;15.10;61.30;;;;;;4938353;29;20399;-74
2023/04/17 12:46:49;;;;;;;;;;;15.20;60.60;;;;;;4933923;29;19989;-74
2023/04/17 12:49:15;;;;;;;;;;;15.30;59.00;;;;;;4917531;29;19968;-74
2023/04/17 12:51:40;;;;;;;;;;;15.50;60.60;;;;;;4908655;29;19919;-74
2023/04/17 12:54:07;;;;;;;;;;;15.50;57.60;;;;;;4933595;29;19922;-74
2023/04/17 12:56:33;;;;;;;;;;;15.90;57.30;;;;;;4924489;29;19985;-74
2023/04/17 12:58:59;;;;;;;;;;;15.90;56.50;;;;;;4927350;29;19914;-74
2023/04/17 13:01:26;;;;;;;;;;;16.00;56.60;;;;;;4919485;29;19920;-73
2023/04/17 13:03:51;;;;;;;;;;;16.10;52.60;;;;;;4922191;29;19910;-75
2023/04/17 13:06:17;;;;;;;;;;;16.50;66.90;;;;;;4921514;29;19940;-76
2023/04/17 13:08:43;;;;;;;;;;;17.30;71.80;;;;;;4925727;29;19918;-76
2023/04/17 13:11:09;;;;;;;;;;;17.60;68.00;;;;;;4927150;29;19911;-76
2023/04/17 13:13:34;;;;;;;;;;;17.90;67.50;;;;;;4940289;29;20251;-76
2023/04/17 13:16:00;;;;;;;;;;;18.20;65.20;;;;;;4948030;29;19926;-77
2023/04/17 13:18:25;;;;;;;;;;;18.30;59.90;;;;;;4940696;28;20386;-76
2023/04/17 13:20:51;;;;;;;;;;;18.30;58.00;;;;;;4944284;29;20374;-76
2023/04/17 13:23:16;;;;;;;;;;;18.40;58.30;;;;;;4930184;29;19959;-76
2023/04/17 13:25:42;;;;;;;;;;;18.50;57.30;;;;;;4931547;29;20000;-76
2023/04/17 13:28:08;;;;;;;;;;;18.70;58.70;;;;;;4939258;29;20394;-76
2023/04/17 13:30:35;;;;;;;;;;;18.50;54.30;;;;;;4937572;29;20001;-77
2023/04/17 13:33:01;;;;;;;;;;;18.80;58.10;;;;;;4922214;29;19946;-75
2023/04/17 13:35:28;;;;;;;;;;;18.80;55.80;;;;;;4929353;29;19929;-75
2023/04/17 13:37:56;;;;;;;;;;;19.00;57.10;;;;;;4942561;29;19914;-76
2023/04/17 13:40:22;;;;;;;;;;;19.20;53.20;;;;;;4947924;29;19978;-76
2023/04/17 13:42:47;;;;;;;;;;;19.10;52.90;;;;;;4906712;29;19950;-76
2023/04/17 13:45:13;;;;;;;;;;;19.20;53.00;;;;;;4937530;29;19919;-76
2023/04/17 13:47:39;;;;;;;;;;;19.30;53.50;;;;;;4911539;29;19915;-76
2023/04/17 13:50:05;;;;;;;;;;;19.40;53.20;;;;;;4931440;29;19914;-76
2023/04/17 13:52:30;;;;;;;;;;;19.40;52.90;;;;;;4934873;29;19911;-75
2023/04/17 13:54:56;;;;;;;;;;;19.10;48.90;;;;;;4917714;29;20355;-75
2023/04/17 13:57:21;;;;;;;;;;;18.80;48.00;;;;;;4920951;29;19997;-75
2023/04/17 13:59:47;;;;;;;;;;;18.10;50.30;;;;;;4907311;29;19941;-74
2023/04/17 14:02:13;;;;;;;;;;;17.80;48.40;;;;;;4939965;29;19953;-74
2023/04/17 14:04:38;;;;;;;;;;;17.50;50.70;;;;;;4939014;29;20009;-74
2023/04/17 14:07:04;;;;;;;;;;;17.10;49.20;;;;;;4916823;29;20428;-73
2023/04/17 14:09:30;;;;;;;;;;;17.30;51.90;;;;;;4919045;29;20327;-73
2023/04/17 14:11:56;;;;;;;;;;;17.80;51.60;;;;;;4931432;29;19925;-75
2023/04/17 14:14:22;;;;;;;;;;;17.70;49.20;;;;;;4905750;29;20478;-75
2023/04/17 14:16:49;;;;;;;;;;;16.90;50.60;;;;;;4941529;29;19930;-75
2023/04/17 14:19:15;;;;;;;;;;;16.90;51.60;;;;;;4930668;28;19916;-75